Warsaw, IN

11:16 AM EDT on July 20, 2017 (GMT -0400)
Warsaw Municipal

Weather History for KASW - January, 2014

Change the Weather History Date:

Monday, January 6, 2014

  Actual Average Record
Temperature  
Mean Temperature 3 °F -  
Max Temperature 19 °F 31 °F 57 °F (2008)
Min Temperature -13 °F 16 °F -13 °F (2014)
Degree Days  
Heating Degree Days 62    
Moisture  
Dew Point -14 °F    
Average Humidity 72    
Maximum Humidity 86    
Minimum Humidity 59    
Precipitation  
Precipitation 0.00 in - - ()
Sea Level Pressure  
Sea Level Pressure 30.09 in    
Wind  
Wind Speed 19 mph (West)    
Max Wind Speed 26 mph    
Max Gust Speed 34 mph    
Visibility 5 miles    
Events Snow    
Averages and records for this station are not official NWS values.
T = Trace of Precipitation, MM = Missing Value Source: NWS Daily Summary

Daily Weather History Graph

Daily Weather History Graph

Search for Another Location

Airport or City:

Trip Planner

Search our weather history database for the weather conditions in past years. The results will help you decide how hot, cold, wet, or windy it might be!

Date:

Astronomy

Jan. 06, 2014 Rise Set
Actual Time 8:09 AM EST 5:29 PM EST
Civil Twilight 7:38 AM EST 6:00 PM EST
Nautical Twilight 7:03 AM EST 6:34 PM EST
Astronomical Twilight 6:30 AM EST 7:08 PM EST
Moon 11:20 AM EST (1/6) No Moon Set
Length of Visible Light 10h 22m
Length of Day
9h 20m
Waxing Crescent, 34% of the Moon is Illuminated
Jan 6
Waxing Crescent
Jan 7
First Quarter
Jan 15
Full
Jan 24
Last Quarter
Jan 30
New

Hourly Weather History & Observations

Time (EST) Temp. Windchill Dew Point Humidity Pressure Visibility Wind Dir Wind Speed Gust Speed Precip Events Conditions
12:15 AM 19.4 °F 3.2 °F 14.0 °F 80% 29.80 in 2.0 mi NW 20.7 mph 34.5 mph N/A Snow Light Snow
12:35 AM 17.6 °F 0.9 °F 14.0 °F 86% 29.81 in 2.5 mi WNW 20.7 mph 31.1 mph N/A Snow Light Snow
12:55 AM 15.8 °F -2.3 °F 12.2 °F 86% 29.83 in 2.5 mi WNW 23.0 mph 31.1 mph N/A Snow Light Snow
1:15 AM 12.2 °F -7.5 °F 8.6 °F 85% 29.83 in 3.0 mi WNW 24.2 mph 31.1 mph N/A Snow Light Snow
1:35 AM 10.4 °F -9.1 °F 6.8 °F 85% 29.85 in 4.0 mi WNW 21.9 mph 27.6 mph N/A Snow Light Snow
1:55 AM 10.4 °F -7.2 °F 5.0 °F 79% 29.86 in 4.0 mi WNW 17.3 mph 25.3 mph N/A Snow Light Snow
2:15 AM 10.4 °F -8.2 °F 5.0 °F 79% 29.88 in 4.0 mi WNW 19.6 mph - N/A Snow Light Snow
2:35 AM 8.6 °F -13.1 °F 3.2 °F 79% 29.89 in 4.0 mi WNW 26.5 mph - N/A   Haze
2:55 AM 8.6 °F -12.7 °F 3.2 °F 79% 29.90 in 4.0 mi West 25.3 mph 33.4 mph N/A   Haze
3:15 AM 6.8 °F -14.7 °F 1.4 °F 79% 29.92 in 3.0 mi WNW 24.2 mph 31.1 mph N/A   Haze
3:35 AM 5.0 °F -16.7 °F -0.4 °F 78% 29.93 in 4.0 mi West 23.0 mph - N/A   Haze
3:55 AM 3.2 °F -20.3 °F -2.2 °F 78% 29.94 in 4.0 mi West 26.5 mph 31.1 mph N/A   Haze
4:15 AM 1.4 °F -21.4 °F -5.8 °F 72% 29.95 in 2.5 mi West 23.0 mph 34.5 mph N/A   Haze
4:35 AM -0.4 °F -24.7 °F -5.8 °F 78% 29.96 in 2.0 mi West 25.3 mph 34.5 mph N/A Snow Light Snow
4:55 AM -0.4 °F -22.8 °F -7.6 °F 72% 29.97 in 3.0 mi West 20.7 mph 31.1 mph N/A   Haze
5:15 AM -0.4 °F -23.8 °F -7.6 °F 72% 29.98 in 5.0 mi West 23.0 mph 28.8 mph N/A   Haze
5:35 AM -2.2 °F -25.2 °F -9.4 °F 71% 29.99 in 4.0 mi West 20.7 mph 29.9 mph N/A   Haze
5:55 AM -4.0 °F -27.6 °F -13.0 °F 65% 30.00 in 3.0 mi West 20.7 mph 29.9 mph N/A   Haze
6:15 AM -5.8 °F -28.8 °F -14.8 °F 65% 30.02 in 7.0 mi West 18.4 mph 27.6 mph N/A   Scattered Clouds
6:35 AM -7.6 °F -31.1 °F -14.8 °F 71% 30.03 in 10.0 mi West 18.4 mph 25.3 mph N/A   Clear
6:55 AM -7.6 °F -31.1 °F -14.8 °F 71% 30.04 in 7.0 mi West 18.4 mph 26.5 mph N/A   Clear
7:15 AM -9.4 °F -32.1 °F -14.8 °F 77% 30.05 in 10.0 mi WSW 16.1 mph 23.0 mph N/A   Clear
7:35 AM -9.4 °F -33.5 °F -16.6 °F 71% 30.07 in 7.0 mi West 18.4 mph 27.6 mph N/A   Clear
7:55 AM -11.2 °F -32.9 °F -18.4 °F 70% 30.07 in 10.0 mi West 13.8 mph 21.9 mph N/A   Clear
8:15 AM -13.0 °F -37.5 °F -18.4 °F 77% 30.08 in 7.0 mi West 17.3 mph 25.3 mph N/A   Clear
8:35 AM -13.0 °F -38.2 °F -18.4 °F 77% 30.08 in 7.0 mi West 18.4 mph 26.5 mph N/A   Clear
8:55 AM -13.0 °F -37.5 °F -18.4 °F 77% 30.10 in 7.0 mi West 17.3 mph 24.2 mph N/A   Clear
9:15 AM -13.0 °F -40.0 °F -20.2 °F 70% 30.10 in 7.0 mi West 21.9 mph 28.8 mph N/A   Clear
9:35 AM -13.0 °F -40.0 °F -20.2 °F 70% 30.11 in 5.0 mi West 21.9 mph 27.6 mph N/A   Haze
9:55 AM -13.0 °F -39.4 °F -20.2 °F 70% 30.12 in 5.0 mi West 20.7 mph 27.6 mph N/A   Haze
10:15 AM -13.0 °F -40.6 °F -20.2 °F 70% 30.13 in 5.0 mi West 23.0 mph 28.8 mph N/A   Haze
10:35 AM -13.0 °F -41.1 °F -20.2 °F 70% 30.13 in 4.0 mi West 24.2 mph 32.2 mph N/A   Haze
10:55 AM -13.0 °F -38.8 °F -20.2 °F 70% 30.13 in 2.5 mi West 19.6 mph 29.9 mph N/A   Haze
11:15 AM -13.0 °F -37.5 °F -22.0 °F 64% 30.13 in 5.0 mi West 17.3 mph 26.5 mph N/A   Haze
11:35 AM -13.0 °F -38.8 °F -22.0 °F 64% 30.13 in 4.0 mi WSW 19.6 mph 26.5 mph N/A   Haze
11:55 AM -13.0 °F -38.2 °F -20.2 °F 70% 30.13 in 3.0 mi West 18.4 mph 27.6 mph N/A   Haze
12:15 PM -13.0 °F -38.2 °F -22.0 °F 64% 30.13 in 5.0 mi West 18.4 mph 26.5 mph N/A   Haze
12:35 PM -13.0 °F -40.0 °F -22.0 °F 64% 30.12 in 4.0 mi West 21.9 mph 28.8 mph N/A   Haze
12:55 PM -13.0 °F -39.4 °F -22.0 °F 64% 30.12 in 4.0 mi West 20.7 mph 27.6 mph N/A   Haze
1:15 PM -11.2 °F -35.2 °F -20.2 °F 64% 30.12 in 3.0 mi West 17.3 mph 27.6 mph N/A   Haze
1:35 PM -11.2 °F -36.4 °F -20.2 °F 64% 30.12 in 4.0 mi West 19.6 mph 27.6 mph N/A   Haze
1:55 PM -11.2 °F -36.4 °F -22.0 °F 59% 30.12 in 5.0 mi West 19.6 mph 27.6 mph N/A   Haze
2:15 PM -11.2 °F -39.2 °F -22.0 °F 59% 30.13 in 3.0 mi West 25.3 mph 31.1 mph N/A   Haze
2:35 PM -11.2 °F -37.0 °F -22.0 °F 59% 30.13 in 7.0 mi West 20.7 mph 26.5 mph N/A   Scattered Clouds
2:55 PM -11.2 °F -35.8 °F -18.4 °F 70% 30.14 in 3.0 mi West 18.4 mph - N/A   Haze
3:15 PM -11.2 °F -33.7 °F -18.4 °F 70% 30.15 in 2.5 mi West 15.0 mph 21.9 mph N/A   Haze
3:35 PM -11.2 °F -33.7 °F -18.4 °F 70% 30.16 in 3.0 mi WSW 15.0 mph 23.0 mph N/A   Haze
3:55 PM -11.2 °F -34.4 °F -18.4 °F 70% 30.17 in 3.0 mi WSW 16.1 mph 19.6 mph N/A   Haze
4:15 PM -13.0 °F -36.8 °F -20.2 °F 70% 30.18 in 3.0 mi WSW 16.1 mph 21.9 mph N/A   Haze
4:35 PM -13.0 °F -33.4 °F -18.4 °F 77% 30.19 in 2.0 mi WSW 11.5 mph 19.6 mph N/A   Haze
4:55 PM -13.0 °F -36.8 °F -20.2 °F 70% 30.19 in 3.0 mi WSW 16.1 mph 25.3 mph N/A   Haze
5:15 PM -13.0 °F -34.3 °F -20.2 °F 70% 30.20 in 4.0 mi WSW 12.7 mph 18.4 mph N/A   Haze
5:35 PM -13.0 °F -35.2 °F -20.2 °F 70% 30.20 in 4.0 mi WSW 13.8 mph 19.6 mph N/A   Haze
5:55 PM -13.0 °F -35.2 °F -20.2 °F 70% 30.20 in 4.0 mi WSW 13.8 mph 18.4 mph N/A   Haze
6:15 PM -13.0 °F -33.4 °F -20.2 °F 70% 30.21 in 4.0 mi WSW 11.5 mph 20.7 mph N/A   Haze
6:35 PM -13.0 °F -33.4 °F -20.2 °F 70% 30.22 in 5.0 mi WSW 11.5 mph 18.4 mph N/A   Haze
6:55 PM -13.0 °F -35.2 °F -20.2 °F 70% 30.22 in 10.0 mi West 13.8 mph 17.3 mph N/A   Overcast
7:15 PM -13.0 °F -34.3 °F -20.2 °F 70% 30.22 in 7.0 mi WSW 12.7 mph - N/A   Scattered Clouds
7:35 PM -13.0 °F -32.4 °F -20.2 °F 70% 30.23 in 7.0 mi WSW 10.4 mph 17.3 mph N/A   Mostly Cloudy
7:55 PM -13.0 °F -36.0 °F -20.2 °F 70% 30.23 in 5.0 mi West 15.0 mph 20.7 mph N/A   Haze
8:15 PM -13.0 °F -33.4 °F -20.2 °F 70% 30.23 in 7.0 mi WSW 11.5 mph 18.4 mph N/A   Scattered Clouds
8:35 PM -13.0 °F -32.4 °F -20.2 °F 70% 30.23 in 7.0 mi West 10.4 mph 18.4 mph N/A   Scattered Clouds
8:55 PM -13.0 °F -33.4 °F -20.2 °F 70% 30.23 in 7.0 mi WSW 11.5 mph - N/A   Scattered Clouds
9:15 PM -13.0 °F -35.2 °F -20.2 °F 70% 30.23 in 5.0 mi WSW 13.8 mph 21.9 mph N/A   Haze
9:35 PM -13.0 °F -35.2 °F -20.2 °F 70% 30.23 in 7.0 mi WSW 13.8 mph 19.6 mph N/A   Scattered Clouds
9:55 PM -13.0 °F -34.3 °F -18.4 °F 77% 30.23 in 10.0 mi WSW 12.7 mph 20.7 mph N/A Snow Light Snow
10:15 PM -13.0 °F -35.2 °F -20.2 °F 70% 30.23 in 10.0 mi WSW 13.8 mph 20.7 mph N/A   Scattered Clouds
10:35 PM -13.0 °F -35.2 °F -18.4 °F 77% 30.23 in 7.0 mi WSW 13.8 mph - N/A   Scattered Clouds
10:55 PM -13.0 °F -33.4 °F -18.4 °F 77% 30.23 in 7.0 mi WSW 11.5 mph 16.1 mph N/A   Mostly Cloudy
11:15 PM -13.0 °F -35.2 °F -18.4 °F 77% 30.22 in 7.0 mi WSW 13.8 mph 18.4 mph N/A   Overcast
11:35 PM -13.0 °F -33.4 °F -18.4 °F 77% 30.22 in 7.0 mi WSW 11.5 mph 20.7 mph N/A   Overcast
11:55 PM -13.0 °F -31.3 °F -18.4 °F 77% 30.22 in 5.0 mi WSW 9.2 mph 16.1 mph N/A   Haze